Search for airport 
image banner adimage banner adimage banner ad
image banner ad

KAIO - Atlantic Muni

Located in Atlantic, United States

ICAO - AIO, IATA - AIO

Data provided by Airmate  

General information

Coordinates: N41°24'14" W95°2'56"
Elevation is 1165 feet MSL.
Magnetic variation is 04° East
View others Airports in Iowa

Operational data

Special qualification required
Current time UTC:
Current local time:
Weather
METAR: KAIO 181755Z AUTO 04008KT 9SM CLR 28/21 A2984 RMK AO2
View NOTAMs / SUP AIP / TFR affecting this airport [VIEW]
Communications frequencies: [VIEW]

Runways:

RWY identifierQFULength (ft)Width (ft)SurfaceLDA (ft)
12123°313275ASPH2842
30303°313275ASPH3132
0222°500075CONC
20202°500075CONC

Airport contact information

Address: Atlantic United States

Satellite view of KAIO